Weather at Aviosuperficie Aretusa Fly

Public forecast

Using degrees Celsius for public forecast. Weather courtesy of forecast.io.

Closest aviation weather report (METAR) to Aviosuperficie Aretusa Fly

Closest report is Sigonella Navy Air Base, 23.4 nm (43.3 km) NNW. Retrieved 2020/12/01 07:55 UTC (51 minutes ago):

LICZ 010755Z 26004KT CAVOK 14/13 Q1019 RMK SKC VIS MIN 9999 WIND THR28 26003KT WIND THR10 27004KT A3010 BLU

Closest aviation forecast (TAF) to Aviosuperficie Aretusa Fly

Closest forecast is Sigonella Navy Air Base, 23.4 nm (43.3 km) NNW. Retrieved 2020/12/01 06:27 UTC (2 hours ago):

TAF LICZ 010500Z 0106/0206 26004KT 9999 FEW030 BECMG 0200/0203 SCT030 SCT070 TEMPO 0200/0206 50000 BR